Startpagina
METAR-TAF:

METAR-TAF

Vliegvelden :

Vliegbasis Bevekom

Bevekom, België

breedte: 50-45N, lengte: 004-46E, hoogte: 105 m

Actueel weer

Dit bericht is 37 minuten geleden gemaakt, om 19:55 UTC
Wind 8 kt uit het oostnoordoosten
Temperatuur 18°C
Vochtigheid 56%
Druk 1019 hPa
Zicht 10 km of meer

METAR: EBBE 181955Z AUTO 07008KT 9999 NCD 18/09 Q1019 BLU

Tijdstip: 22:32 (20:32 UTC)

Verwachting

Dit bericht is 8 uur en het 51 minuten geleden gemaakt, om 11:41 UTC
Verwachting geldig van 18 om 13 UTC tot 18 om 22 UTC
Wind 10 kt uit het oostnoordoosten
Zicht 10 km of meer
Onbewolkt
Tijdelijke
van 18 om 13 UTC tot 18 om 19 UTC
Wind 12 kt uit het oosten met uitschieters tot 25 kt
Weinig wolken op 27000 ft

TAF: EBBE 181141Z 1813/1822 07010KT 9999 SKC TEMPO 1813/1819 08012G25KT FEW270

Waarnemingen en weersverwachtingen van meer dan 4000 vliegvelden (METAR en TAF).

De beschikbare stations zijn de gele en rode punten op de kaart.

Ga met uw muis naar het station om de naam te zien.

Klik dan om waarnemingen en weersverwachtingen te zien.

kaart wijzigen: klik op de groene knoppen met een zwart kruis om in te zoomen, op de groene knop met een streepje om uit te zoomen of op de groene pijlen voor aangrenzende kaarten.


METAR-TAF: